sensor_id;sensor_type;location;lat;lon;timestamp;P1;durP1;ratioP1;P2;durP2;ratioP2
23159;SDS011;11748;50.844;4.396;2023-04-15T00:00:38;4.45;;;3.25;;
23159;SDS011;11748;50.844;4.396;2023-04-15T00:03:03;7.38;;;3.28;;
23159;SDS011;11748;50.844;4.396;2023-04-15T00:05:30;5.38;;;3.13;;
23159;SDS011;11748;50.844;4.396;2023-04-15T00:07:56;3.88;;;3.22;;
23159;SDS011;11748;50.844;4.396;2023-04-15T00:10:23;5.93;;;3.70;;
23159;SDS011;11748;50.844;4.396;2023-04-15T00:12:49;4.00;;;3.00;;
23159;SDS011;11748;50.844;4.396;2023-04-15T00:15:16;3.67;;;2.53;;
23159;SDS011;11748;50.844;4.396;2023-04-15T00:17:42;4.20;;;3.03;;
23159;SDS011;11748;50.844;4.396;2023-04-15T00:20:07;6.43;;;3.45;;
23159;SDS011;11748;50.844;4.396;2023-04-15T00:22:34;4.10;;;2.92;;
23159;SDS011;11748;50.844;4.396;2023-04-15T00:25:00;6.25;;;3.75;;
23159;SDS011;11748;50.844;4.396;2023-04-15T00:27:27;5.70;;;3.22;;
23159;SDS011;11748;50.844;4.396;2023-04-15T00:29:53;5.80;;;3.50;;
23159;SDS011;11748;50.844;4.396;2023-04-15T00:32:19;5.70;;;3.42;;
23159;SDS011;11748;50.844;4.396;2023-04-15T00:34:44;3.97;;;3.28;;
23159;SDS011;11748;50.844;4.396;2023-04-15T00:37:11;5.18;;;2.95;;
23159;SDS011;11748;50.844;4.396;2023-04-15T00:39:36;5.10;;;2.83;;
23159;SDS011;11748;50.844;4.396;2023-04-15T00:42:05;5.32;;;2.75;;
23159;SDS011;11748;50.844;4.396;2023-04-15T00:44:31;4.97;;;2.90;;
23159;SDS011;11748;50.844;4.396;2023-04-15T00:47:00;6.22;;;3.50;;
23159;SDS011;11748;50.844;4.396;2023-04-15T00:49:28;5.97;;;2.63;;
23159;SDS011;11748;50.844;4.396;2023-04-15T00:51:56;4.10;;;2.63;;
23159;SDS011;11748;50.844;4.396;2023-04-15T00:54:21;4.05;;;2.40;;
23159;SDS011;11748;50.844;4.396;2023-04-15T00:56:47;3.15;;;2.22;;
23159;SDS011;11748;50.844;4.396;2023-04-15T00:59:13;2.72;;;2.17;;
23159;SDS011;11748;50.844;4.396;2023-04-15T01:01:40;2.75;;;2.38;;
23159;SDS011;11748;50.844;4.396;2023-04-15T01:04:07;3.70;;;2.40;;
23159;SDS011;11748;50.844;4.396;2023-04-15T01:06:34;3.78;;;2.25;;
23159;SDS011;11748;50.844;4.396;2023-04-15T01:09:00;4.20;;;2.30;;
23159;SDS011;11748;50.844;4.396;2023-04-15T01:11:27;2.65;;;2.10;;
23159;SDS011;11748;50.844;4.396;2023-04-15T01:13:53;3.13;;;2.25;;
23159;SDS011;11748;50.844;4.396;2023-04-15T01:16:21;3.72;;;2.20;;
23159;SDS011;11748;50.844;4.396;2023-04-15T01:18:47;3.38;;;2.35;;
23159;SDS011;11748;50.844;4.396;2023-04-15T01:21:13;4.53;;;2.72;;
23159;SDS011;11748;50.844;4.396;2023-04-15T01:23:39;6.78;;;2.40;;
23159;SDS011;11748;50.844;4.396;2023-04-15T01:26:06;3.33;;;2.20;;
23159;SDS011;11748;50.844;4.396;2023-04-15T01:28:35;4.30;;;2.20;;
23159;SDS011;11748;50.844;4.396;2023-04-15T01:31:19;3.95;;;2.40;;
23159;SDS011;11748;50.844;4.396;2023-04-15T01:33:46;2.57;;;2.30;;
23159;SDS011;11748;50.844;4.396;2023-04-15T01:36:11;4.90;;;2.05;;
23159;SDS011;11748;50.844;4.396;2023-04-15T01:38:37;3.35;;;2.28;;
23159;SDS011;11748;50.844;4.396;2023-04-15T01:41:03;4.10;;;2.15;;
23159;SDS011;11748;50.844;4.396;2023-04-15T01:43:30;3.35;;;2.53;;
23159;SDS011;11748;50.844;4.396;2023-04-15T01:45:57;4.28;;;2.08;;
23159;SDS011;11748;50.844;4.396;2023-04-15T01:48:22;3.78;;;2.33;;
23159;SDS011;11748;50.844;4.396;2023-04-15T01:50:48;5.53;;;2.97;;
23159;SDS011;11748;50.844;4.396;2023-04-15T01:53:14;2.92;;;2.30;;
23159;SDS011;11748;50.844;4.396;2023-04-15T01:55:41;3.00;;;2.28;;
23159;SDS011;11748;50.844;4.396;2023-04-15T01:58:06;5.97;;;2.20;;
23159;SDS011;11748;50.844;4.396;2023-04-15T02:00:32;4.00;;;2.08;;
23159;SDS011;11748;50.844;4.396;2023-04-15T02:02:59;4.53;;;2.10;;
23159;SDS011;11748;50.844;4.396;2023-04-15T02:05:25;3.95;;;2.30;;
23159;SDS011;11748;50.844;4.396;2023-04-15T02:07:50;2.60;;;1.90;;
23159;SDS011;11748;50.844;4.396;2023-04-15T02:10:16;3.88;;;2.17;;
23159;SDS011;11748;50.844;4.396;2023-04-15T02:12:42;2.90;;;2.10;;
23159;SDS011;11748;50.844;4.396;2023-04-15T02:15:08;3.30;;;2.35;;
23159;SDS011;11748;50.844;4.396;2023-04-15T02:17:35;3.10;;;2.10;;
23159;SDS011;11748;50.844;4.396;2023-04-15T02:20:02;3.28;;;2.00;;
23159;SDS011;11748;50.844;4.396;2023-04-15T02:22:32;5.50;;;3.30;;
23159;SDS011;11748;50.844;4.396;2023-04-15T02:24:58;3.53;;;2.40;;
23159;SDS011;11748;50.844;4.396;2023-04-15T02:27:24;5.63;;;2.95;;
23159;SDS011;11748;50.844;4.396;2023-04-15T02:29:50;8.73;;;3.97;;
23159;SDS011;11748;50.844;4.396;2023-04-15T02:32:16;7.10;;;3.85;;
23159;SDS011;11748;50.844;4.396;2023-04-15T02:34:42;8.07;;;4.15;;
23159;SDS011;11748;50.844;4.396;2023-04-15T02:37:09;8.10;;;4.25;;
23159;SDS011;11748;50.844;4.396;2023-04-15T02:39:35;8.93;;;4.60;;
23159;SDS011;11748;50.844;4.396;2023-04-15T02:42:01;9.63;;;5.55;;
23159;SDS011;11748;50.844;4.396;2023-04-15T02:44:27;9.63;;;5.13;;
23159;SDS011;11748;50.844;4.396;2023-04-15T02:46:53;10.07;;;4.82;;
23159;SDS011;11748;50.844;4.396;2023-04-15T02:49:19;13.43;;;5.82;;
23159;SDS011;11748;50.844;4.396;2023-04-15T02:51:45;13.77;;;5.95;;
23159;SDS011;11748;50.844;4.396;2023-04-15T02:54:18;17.00;;;8.10;;
23159;SDS011;11748;50.844;4.396;2023-04-15T02:56:45;17.35;;;8.63;;
23159;SDS011;11748;50.844;4.396;2023-04-15T02:59:11;21.95;;;9.27;;
23159;SDS011;11748;50.844;4.396;2023-04-15T03:01:37;23.33;;;9.93;;
23159;SDS011;11748;50.844;4.396;2023-04-15T03:04:03;21.80;;;10.30;;
23159;SDS011;11748;50.844;4.396;2023-04-15T03:06:30;22.60;;;11.38;;
23159;SDS011;11748;50.844;4.396;2023-04-15T03:08:55;28.50;;;11.27;;
23159;SDS011;11748;50.844;4.396;2023-04-15T03:11:21;26.02;;;11.45;;
23159;SDS011;11748;50.844;4.396;2023-04-15T03:13:47;25.20;;;11.70;;
23159;SDS011;11748;50.844;4.396;2023-04-15T03:16:13;24.48;;;11.52;;
23159;SDS011;11748;50.844;4.396;2023-04-15T03:18:39;25.35;;;10.90;;
23159;SDS011;11748;50.844;4.396;2023-04-15T03:21:04;22.23;;;11.45;;
23159;SDS011;11748;50.844;4.396;2023-04-15T03:23:30;23.67;;;11.55;;
23159;SDS011;11748;50.844;4.396;2023-04-15T03:25:56;25.38;;;11.25;;
23159;SDS011;11748;50.844;4.396;2023-04-15T03:28:25;23.77;;;12.25;;
23159;SDS011;11748;50.844;4.396;2023-04-15T03:30:51;23.05;;;10.77;;
23159;SDS011;11748;50.844;4.396;2023-04-15T03:33:17;22.30;;;12.25;;
23159;SDS011;11748;50.844;4.396;2023-04-15T03:35:42;23.23;;;11.77;;
23159;SDS011;11748;50.844;4.396;2023-04-15T03:38:08;19.67;;;9.00;;
23159;SDS011;11748;50.844;4.396;2023-04-15T03:40:34;15.10;;;8.55;;
23159;SDS011;11748;50.844;4.396;2023-04-15T03:42:59;13.70;;;8.00;;
23159;SDS011;11748;50.844;4.396;2023-04-15T03:45:25;16.83;;;8.75;;
23159;SDS011;11748;50.844;4.396;2023-04-15T03:47:51;11.35;;;7.63;;
23159;SDS011;11748;50.844;4.396;2023-04-15T03:50:17;14.77;;;8.63;;
23159;SDS011;11748;50.844;4.396;2023-04-15T03:52:43;13.68;;;8.95;;
23159;SDS011;11748;50.844;4.396;2023-04-15T03:55:09;14.65;;;8.48;;
23159;SDS011;11748;50.844;4.396;2023-04-15T03:57:35;13.25;;;8.63;;
23159;SDS011;11748;50.844;4.396;2023-04-15T04:00:04;15.15;;;7.82;;
23159;SDS011;11748;50.844;4.396;2023-04-15T04:02:31;14.15;;;8.88;;
23159;SDS011;11748;50.844;4.396;2023-04-15T04:04:56;10.95;;;7.63;;
23159;SDS011;11748;50.844;4.396;2023-04-15T04:07:22;11.48;;;8.38;;
23159;SDS011;11748;50.844;4.396;2023-04-15T04:09:49;13.38;;;8.40;;
23159;SDS011;11748;50.844;4.396;2023-04-15T04:12:14;13.13;;;8.93;;
23159;SDS011;11748;50.844;4.396;2023-04-15T04:14:40;10.40;;;7.35;;
23159;SDS011;11748;50.844;4.396;2023-04-15T04:17:06;10.63;;;7.30;;
23159;SDS011;11748;50.844;4.396;2023-04-15T04:19:32;12.15;;;7.32;;
23159;SDS011;11748;50.844;4.396;2023-04-15T04:21:59;10.40;;;7.10;;
23159;SDS011;11748;50.844;4.396;2023-04-15T04:24:25;11.07;;;7.00;;
23159;SDS011;11748;50.844;4.396;2023-04-15T04:26:50;10.40;;;7.03;;
23159;SDS011;11748;50.844;4.396;2023-04-15T04:29:16;11.85;;;7.40;;
23159;SDS011;11748;50.844;4.396;2023-04-15T04:31:42;10.85;;;6.97;;
23159;SDS011;11748;50.844;4.396;2023-04-15T04:34:07;10.43;;;7.22;;
23159;SDS011;11748;50.844;4.396;2023-04-15T04:36:33;9.23;;;6.40;;
23159;SDS011;11748;50.844;4.396;2023-04-15T04:38:59;11.60;;;6.63;;
23159;SDS011;11748;50.844;4.396;2023-04-15T04:41:25;10.88;;;6.68;;
23159;SDS011;11748;50.844;4.396;2023-04-15T04:43:51;13.77;;;7.38;;
23159;SDS011;11748;50.844;4.396;2023-04-15T04:46:16;10.18;;;6.68;;
23159;SDS011;11748;50.844;4.396;2023-04-15T04:48:42;11.23;;;6.60;;
23159;SDS011;11748;50.844;4.396;2023-04-15T04:51:08;8.85;;;6.20;;
23159;SDS011;11748;50.844;4.396;2023-04-15T04:53:34;10.02;;;6.57;;
23159;SDS011;11748;50.844;4.396;2023-04-15T04:56:01;10.68;;;6.82;;
23159;SDS011;11748;50.844;4.396;2023-04-15T04:58:27;9.32;;;6.35;;
23159;SDS011;11748;50.844;4.396;2023-04-15T05:00:53;11.25;;;6.68;;
23159;SDS011;11748;50.844;4.396;2023-04-15T05:03:20;11.18;;;6.95;;
23159;SDS011;11748;50.844;4.396;2023-04-15T05:05:46;12.85;;;6.93;;
23159;SDS011;11748;50.844;4.396;2023-04-15T05:08:13;10.20;;;6.97;;
23159;SDS011;11748;50.844;4.396;2023-04-15T05:10:39;11.07;;;6.40;;
23159;SDS011;11748;50.844;4.396;2023-04-15T05:13:05;12.93;;;6.65;;
23159;SDS011;11748;50.844;4.396;2023-04-15T05:15:30;10.82;;;6.80;;
23159;SDS011;11748;50.844;4.396;2023-04-15T05:17:57;12.73;;;6.15;;
23159;SDS011;11748;50.844;4.396;2023-04-15T05:20:23;9.70;;;5.60;;
23159;SDS011;11748;50.844;4.396;2023-04-15T05:22:48;12.52;;;6.45;;
23159;SDS011;11748;50.844;4.396;2023-04-15T05:25:14;9.55;;;6.55;;
23159;SDS011;11748;50.844;4.396;2023-04-15T05:27:40;13.20;;;6.25;;
23159;SDS011;11748;50.844;4.396;2023-04-15T05:30:06;11.98;;;6.60;;
23159;SDS011;11748;50.844;4.396;2023-04-15T05:32:32;10.68;;;6.55;;
23159;SDS011;11748;50.844;4.396;2023-04-15T05:34:59;9.68;;;6.15;;
23159;SDS011;11748;50.844;4.396;2023-04-15T05:37:25;11.50;;;5.95;;
23159;SDS011;11748;50.844;4.396;2023-04-15T05:39:51;13.38;;;6.07;;
23159;SDS011;11748;50.844;4.396;2023-04-15T05:42:16;12.15;;;6.70;;
23159;SDS011;11748;50.844;4.396;2023-04-15T05:44:42;11.55;;;6.18;;
23159;SDS011;11748;50.844;4.396;2023-04-15T05:47:08;8.80;;;6.00;;
23159;SDS011;11748;50.844;4.396;2023-04-15T05:49:35;10.63;;;6.40;;
23159;SDS011;11748;50.844;4.396;2023-04-15T05:52:00;12.50;;;6.78;;
23159;SDS011;11748;50.844;4.396;2023-04-15T05:54:26;7.90;;;6.15;;
23159;SDS011;11748;50.844;4.396;2023-04-15T05:56:52;10.73;;;6.38;;
23159;SDS011;11748;50.844;4.396;2023-04-15T05:59:18;11.35;;;6.20;;
23159;SDS011;11748;50.844;4.396;2023-04-15T06:01:45;9.98;;;6.07;;
23159;SDS011;11748;50.844;4.396;2023-04-15T06:04:11;11.57;;;6.32;;
23159;SDS011;11748;50.844;4.396;2023-04-15T06:06:36;11.25;;;6.50;;
23159;SDS011;11748;50.844;4.396;2023-04-15T06:09:03;9.30;;;6.68;;
23159;SDS011;11748;50.844;4.396;2023-04-15T06:11:28;10.05;;;7.03;;
23159;SDS011;11748;50.844;4.396;2023-04-15T06:13:54;11.27;;;6.47;;
23159;SDS011;11748;50.844;4.396;2023-04-15T06:16:20;14.60;;;7.07;;
23159;SDS011;11748;50.844;4.396;2023-04-15T06:18:47;9.82;;;6.88;;
23159;SDS011;11748;50.844;4.396;2023-04-15T06:21:12;10.82;;;6.78;;
23159;SDS011;11748;50.844;4.396;2023-04-15T06:23:39;11.65;;;6.60;;
23159;SDS011;11748;50.844;4.396;2023-04-15T06:26:05;7.78;;;5.55;;
23159;SDS011;11748;50.844;4.396;2023-04-15T06:28:31;8.82;;;6.20;;
23159;SDS011;11748;50.844;4.396;2023-04-15T06:30:57;12.55;;;5.80;;
23159;SDS011;11748;50.844;4.396;2023-04-15T06:33:23;13.25;;;6.40;;
23159;SDS011;11748;50.844;4.396;2023-04-15T06:35:49;9.20;;;6.28;;
23159;SDS011;11748;50.844;4.396;2023-04-15T06:38:15;10.90;;;6.82;;
23159;SDS011;11748;50.844;4.396;2023-04-15T06:40:40;7.55;;;6.05;;
23159;SDS011;11748;50.844;4.396;2023-04-15T06:43:06;9.23;;;5.63;;
23159;SDS011;11748;50.844;4.396;2023-04-15T06:45:33;10.70;;;5.65;;
23159;SDS011;11748;50.844;4.396;2023-04-15T06:47:59;8.98;;;5.25;;
23159;SDS011;11748;50.844;4.396;2023-04-15T06:50:24;10.30;;;5.47;;
23159;SDS011;11748;50.844;4.396;2023-04-15T06:52:51;8.77;;;5.30;;
23159;SDS011;11748;50.844;4.396;2023-04-15T06:55:17;9.60;;;5.30;;
23159;SDS011;11748;50.844;4.396;2023-04-15T06:57:43;9.90;;;5.47;;
23159;SDS011;11748;50.844;4.396;2023-04-15T07:00:09;9.25;;;4.95;;
23159;SDS011;11748;50.844;4.396;2023-04-15T07:02:36;8.07;;;4.93;;
23159;SDS011;11748;50.844;4.396;2023-04-15T07:05:01;9.15;;;5.05;;
23159;SDS011;11748;50.844;4.396;2023-04-15T07:07:28;8.95;;;5.22;;
23159;SDS011;11748;50.844;4.396;2023-04-15T07:09:54;8.65;;;5.32;;
23159;SDS011;11748;50.844;4.396;2023-04-15T07:12:20;10.10;;;5.53;;
23159;SDS011;11748;50.844;4.396;2023-04-15T07:14:46;9.95;;;5.13;;
23159;SDS011;11748;50.844;4.396;2023-04-15T07:17:11;7.97;;;5.35;;
23159;SDS011;11748;50.844;4.396;2023-04-15T07:19:37;9.88;;;5.93;;
23159;SDS011;11748;50.844;4.396;2023-04-15T07:22:03;12.27;;;5.70;;
23159;SDS011;11748;50.844;4.396;2023-04-15T07:24:29;10.10;;;5.95;;
23159;SDS011;11748;50.844;4.396;2023-04-15T07:26:55;11.35;;;5.90;;
23159;SDS011;11748;50.844;4.396;2023-04-15T07:29:23;9.48;;;5.80;;
23159;SDS011;11748;50.844;4.396;2023-04-15T07:31:50;11.77;;;6.55;;
23159;SDS011;11748;50.844;4.396;2023-04-15T07:34:16;12.90;;;6.63;;
23159;SDS011;11748;50.844;4.396;2023-04-15T07:36:43;13.23;;;6.72;;
23159;SDS011;11748;50.844;4.396;2023-04-15T07:39:08;10.95;;;6.90;;
23159;SDS011;11748;50.844;4.396;2023-04-15T07:41:34;11.32;;;6.88;;
23159;SDS011;11748;50.844;4.396;2023-04-15T07:44:00;12.75;;;7.10;;
23159;SDS011;11748;50.844;4.396;2023-04-15T07:46:25;12.35;;;6.60;;
23159;SDS011;11748;50.844;4.396;2023-04-15T07:48:51;10.82;;;7.43;;
23159;SDS011;11748;50.844;4.396;2023-04-15T07:51:18;12.52;;;7.40;;
23159;SDS011;11748;50.844;4.396;2023-04-15T07:53:45;13.77;;;7.93;;
23159;SDS011;11748;50.844;4.396;2023-04-15T07:56:12;10.70;;;8.00;;
23159;SDS011;11748;50.844;4.396;2023-04-15T07:58:38;12.50;;;8.38;;
23159;SDS011;11748;50.844;4.396;2023-04-15T08:01:04;10.75;;;8.18;;
23159;SDS011;11748;50.844;4.396;2023-04-15T08:03:29;14.57;;;8.45;;
23159;SDS011;11748;50.844;4.396;2023-04-15T08:05:56;14.05;;;8.98;;
23159;SDS011;11748;50.844;4.396;2023-04-15T08:08:21;15.70;;;9.48;;
23159;SDS011;11748;50.844;4.396;2023-04-15T08:10:47;12.82;;;9.07;;
23159;SDS011;11748;50.844;4.396;2023-04-15T08:13:13;14.10;;;9.93;;
23159;SDS011;11748;50.844;4.396;2023-04-15T08:15:40;13.32;;;9.60;;
23159;SDS011;11748;50.844;4.396;2023-04-15T08:18:06;15.93;;;9.75;;
23159;SDS011;11748;50.844;4.396;2023-04-15T08:20:32;13.02;;;9.15;;
23159;SDS011;11748;50.844;4.396;2023-04-15T08:22:57;13.18;;;9.20;;
23159;SDS011;11748;50.844;4.396;2023-04-15T08:25:23;14.38;;;9.45;;
23159;SDS011;11748;50.844;4.396;2023-04-15T08:27:49;16.42;;;10.00;;
23159;SDS011;11748;50.844;4.396;2023-04-15T08:30:15;13.57;;;8.98;;
23159;SDS011;11748;50.844;4.396;2023-04-15T08:32:41;14.63;;;9.52;;
23159;SDS011;11748;50.844;4.396;2023-04-15T08:35:11;16.63;;;9.90;;
23159;SDS011;11748;50.844;4.396;2023-04-15T08:37:37;12.90;;;9.60;;
23159;SDS011;11748;50.844;4.396;2023-04-15T08:40:03;15.25;;;9.90;;
23159;SDS011;11748;50.844;4.396;2023-04-15T08:42:35;13.68;;;10.10;;
23159;SDS011;11748;50.844;4.396;2023-04-15T08:45:03;13.07;;;9.68;;
23159;SDS011;11748;50.844;4.396;2023-04-15T08:47:30;13.82;;;9.73;;
23159;SDS011;11748;50.844;4.396;2023-04-15T08:49:56;18.55;;;10.85;;
23159;SDS011;11748;50.844;4.396;2023-04-15T08:52:25;18.80;;;9.98;;
23159;SDS011;11748;50.844;4.396;2023-04-15T08:54:51;16.15;;;9.98;;
23159;SDS011;11748;50.844;4.396;2023-04-15T08:57:22;16.20;;;11.02;;
23159;SDS011;11748;50.844;4.396;2023-04-15T08:59:55;15.43;;;10.43;;
23159;SDS011;11748;50.844;4.396;2023-04-15T09:02:22;17.00;;;9.75;;
23159;SDS011;11748;50.844;4.396;2023-04-15T09:04:48;14.52;;;9.45;;
23159;SDS011;11748;50.844;4.396;2023-04-15T09:07:14;12.05;;;9.18;;
23159;SDS011;11748;50.844;4.396;2023-04-15T09:09:40;17.33;;;9.93;;
23159;SDS011;11748;50.844;4.396;2023-04-15T09:12:07;17.45;;;10.85;;
23159;SDS011;11748;50.844;4.396;2023-04-15T09:14:33;16.95;;;9.77;;
23159;SDS011;11748;50.844;4.396;2023-04-15T09:16:59;16.65;;;10.70;;
23159;SDS011;11748;50.844;4.396;2023-04-15T09:19:26;13.63;;;9.05;;
23159;SDS011;11748;50.844;4.396;2023-04-15T09:21:53;14.00;;;9.25;;
23159;SDS011;11748;50.844;4.396;2023-04-15T09:24:21;13.48;;;8.98;;
23159;SDS011;11748;50.844;4.396;2023-04-15T09:26:51;9.45;;;8.35;;
23159;SDS011;11748;50.844;4.396;2023-04-15T09:29:18;17.83;;;8.35;;
23159;SDS011;11748;50.844;4.396;2023-04-15T09:31:48;11.88;;;7.28;;
23159;SDS011;11748;50.844;4.396;2023-04-15T09:34:13;10.60;;;6.63;;
23159;SDS011;11748;50.844;4.396;2023-04-15T09:36:55;8.23;;;5.82;;
23159;SDS011;11748;50.844;4.396;2023-04-15T09:39:21;9.98;;;5.20;;
23159;SDS011;11748;50.844;4.396;2023-04-15T09:42:06;6.95;;;5.28;;
23159;SDS011;11748;50.844;4.396;2023-04-15T09:44:32;6.55;;;5.30;;
23159;SDS011;11748;50.844;4.396;2023-04-15T09:46:59;7.97;;;5.55;;
23159;SDS011;11748;50.844;4.396;2023-04-15T09:49:25;9.93;;;5.35;;
23159;SDS011;11748;50.844;4.396;2023-04-15T09:51:56;11.40;;;6.38;;
23159;SDS011;11748;50.844;4.396;2023-04-15T09:54:32;7.18;;;5.57;;
23159;SDS011;11748;50.844;4.396;2023-04-15T09:57:03;8.35;;;5.25;;
23159;SDS011;11748;50.844;4.396;2023-04-15T09:59:34;6.32;;;4.45;;
23159;SDS011;11748;50.844;4.396;2023-04-15T10:02:00;8.48;;;4.88;;
23159;SDS011;11748;50.844;4.396;2023-04-15T10:04:30;9.95;;;5.18;;
23159;SDS011;11748;50.844;4.396;2023-04-15T10:07:00;13.75;;;5.63;;
23159;SDS011;11748;50.844;4.396;2023-04-15T10:09:28;10.95;;;5.57;;
23159;SDS011;11748;50.844;4.396;2023-04-15T10:11:54;11.90;;;5.78;;
23159;SDS011;11748;50.844;4.396;2023-04-15T10:14:20;9.88;;;6.03;;
23159;SDS011;11748;50.844;4.396;2023-04-15T10:16:46;9.50;;;6.32;;
23159;SDS011;11748;50.844;4.396;2023-04-15T10:19:14;8.88;;;6.00;;
23159;SDS011;11748;50.844;4.396;2023-04-15T10:21:43;10.70;;;5.80;;
23159;SDS011;11748;50.844;4.396;2023-04-15T10:24:09;7.95;;;5.28;;
23159;SDS011;11748;50.844;4.396;2023-04-15T10:26:36;6.13;;;4.88;;
23159;SDS011;11748;50.844;4.396;2023-04-15T10:29:02;6.70;;;5.20;;
23159;SDS011;11748;50.844;4.396;2023-04-15T10:31:28;6.15;;;5.03;;
23159;SDS011;11748;50.844;4.396;2023-04-15T10:33:55;6.13;;;4.63;;
23159;SDS011;11748;50.844;4.396;2023-04-15T10:36:21;5.00;;;4.22;;
23159;SDS011;11748;50.844;4.396;2023-04-15T10:38:47;8.85;;;4.55;;
23159;SDS011;11748;50.844;4.396;2023-04-15T10:41:26;7.10;;;4.53;;
23159;SDS011;11748;50.844;4.396;2023-04-15T10:46:35;5.55;;;4.18;;
23159;SDS011;11748;50.844;4.396;2023-04-15T10:51:36;4.57;;;3.33;;
23159;SDS011;11748;50.844;4.396;2023-04-15T10:54:07;6.63;;;3.25;;
23159;SDS011;11748;50.844;4.396;2023-04-15T10:56:40;6.32;;;2.92;;
23159;SDS011;11748;50.844;4.396;2023-04-15T10:59:07;6.10;;;2.63;;
23159;SDS011;11748;50.844;4.396;2023-04-15T11:10:03;6.53;;;3.05;;
23159;SDS011;11748;50.844;4.396;2023-04-15T11:12:50;4.50;;;2.53;;
23159;SDS011;11748;50.844;4.396;2023-04-15T11:18:11;3.60;;;3.00;;
23159;SDS011;11748;50.844;4.396;2023-04-15T11:20:42;4.20;;;2.85;;
23159;SDS011;11748;50.844;4.396;2023-04-15T11:23:46;6.05;;;3.63;;
23159;SDS011;11748;50.844;4.396;2023-04-15T11:26:08;6.50;;;2.90;;
23159;SDS011;11748;50.844;4.396;2023-04-15T11:28:36;3.28;;;2.85;;
23159;SDS011;11748;50.844;4.396;2023-04-15T11:31:07;5.15;;;3.20;;
23159;SDS011;11748;50.844;4.396;2023-04-15T11:33:38;5.90;;;3.50;;
23159;SDS011;11748;50.844;4.396;2023-04-15T11:36:19;5.05;;;3.08;;
23159;SDS011;11748;50.844;4.396;2023-04-15T11:38:45;5.80;;;3.17;;
23159;SDS011;11748;50.844;4.396;2023-04-15T11:41:12;4.93;;;3.20;;
23159;SDS011;11748;50.844;4.396;2023-04-15T11:43:38;4.22;;;3.50;;
23159;SDS011;11748;50.844;4.396;2023-04-15T11:46:04;3.55;;;3.13;;
23159;SDS011;11748;50.844;4.396;2023-04-15T11:48:30;4.78;;;3.65;;
23159;SDS011;11748;50.844;4.396;2023-04-15T11:51:02;5.72;;;1.80;;
23159;SDS011;11748;50.844;4.396;2023-04-15T11:56:26;2.50;;;1.75;;
23159;SDS011;11748;50.844;4.396;2023-04-15T11:58:52;2.65;;;2.03;;
23159;SDS011;11748;50.844;4.396;2023-04-15T12:01:29;3.47;;;2.50;;
23159;SDS011;11748;50.844;4.396;2023-04-15T12:03:56;3.97;;;2.50;;
23159;SDS011;11748;50.844;4.396;2023-04-15T12:06:24;4.32;;;2.58;;
23159;SDS011;11748;50.844;4.396;2023-04-15T12:09:16;3.72;;;2.58;;
23159;SDS011;11748;50.844;4.396;2023-04-15T12:11:42;6.05;;;3.53;;
23159;SDS011;11748;50.844;4.396;2023-04-15T12:14:09;3.35;;;3.05;;
23159;SDS011;11748;50.844;4.396;2023-04-15T12:16:56;3.42;;;2.83;;
23159;SDS011;11748;50.844;4.396;2023-04-15T12:21:52;3.97;;;2.47;;
23159;SDS011;11748;50.844;4.396;2023-04-15T12:24:26;3.53;;;2.65;;
23159;SDS011;11748;50.844;4.396;2023-04-15T12:26:56;3.72;;;2.70;;
23159;SDS011;11748;50.844;4.396;2023-04-15T12:29:26;3.72;;;2.90;;
23159;SDS011;11748;50.844;4.396;2023-04-15T12:31:56;3.40;;;2.90;;
23159;SDS011;11748;50.844;4.396;2023-04-15T12:34:36;5.75;;;2.50;;
23159;SDS011;11748;50.844;4.396;2023-04-15T12:37:03;5.32;;;2.70;;
23159;SDS011;11748;50.844;4.396;2023-04-15T12:39:30;2.90;;;2.08;;
23159;SDS011;11748;50.844;4.396;2023-04-15T12:41:59;2.90;;;1.80;;
23159;SDS011;11748;50.844;4.396;2023-04-15T12:44:25;2.58;;;1.80;;
23159;SDS011;11748;50.844;4.396;2023-04-15T12:46:52;4.00;;;1.80;;
23159;SDS011;11748;50.844;4.396;2023-04-15T12:49:19;3.13;;;1.98;;
23159;SDS011;11748;50.844;4.396;2023-04-15T12:51:47;2.90;;;2.10;;
23159;SDS011;11748;50.844;4.396;2023-04-15T12:54:14;2.10;;;1.63;;
23159;SDS011;11748;50.844;4.396;2023-04-15T12:56:41;2.38;;;1.80;;
23159;SDS011;11748;50.844;4.396;2023-04-15T12:59:07;2.38;;;1.90;;
23159;SDS011;11748;50.844;4.396;2023-04-15T13:01:33;4.43;;;2.13;;
23159;SDS011;11748;50.844;4.396;2023-04-15T13:03:58;3.65;;;2.20;;
23159;SDS011;11748;50.844;4.396;2023-04-15T13:06:24;3.53;;;2.00;;
23159;SDS011;11748;50.844;4.396;2023-04-15T13:08:50;2.88;;;2.47;;
23159;SDS011;11748;50.844;4.396;2023-04-15T13:11:18;3.28;;;2.20;;
23159;SDS011;11748;50.844;4.396;2023-04-15T13:13:44;3.58;;;1.90;;
23159;SDS011;11748;50.844;4.396;2023-04-15T13:16:10;3.65;;;1.95;;
23159;SDS011;11748;50.844;4.396;2023-04-15T13:18:36;4.57;;;1.92;;
23159;SDS011;11748;50.844;4.396;2023-04-15T13:21:02;3.30;;;2.67;;
23159;SDS011;11748;50.844;4.396;2023-04-15T13:23:31;3.90;;;2.42;;
23159;SDS011;11748;50.844;4.396;2023-04-15T13:25:57;4.53;;;2.75;;
23159;SDS011;11748;50.844;4.396;2023-04-15T13:28:23;4.13;;;2.88;;
23159;SDS011;11748;50.844;4.396;2023-04-15T13:30:49;4.93;;;2.53;;
23159;SDS011;11748;50.844;4.396;2023-04-15T13:33:15;3.88;;;2.97;;
23159;SDS011;11748;50.844;4.396;2023-04-15T13:35:42;3.90;;;2.33;;
23159;SDS011;11748;50.844;4.396;2023-04-15T13:38:08;3.58;;;2.47;;
23159;SDS011;11748;50.844;4.396;2023-04-15T13:40:34;3.38;;;2.30;;
23159;SDS011;11748;50.844;4.396;2023-04-15T13:43:00;3.83;;;2.38;;
23159;SDS011;11748;50.844;4.396;2023-04-15T13:45:27;5.68;;;2.28;;
23159;SDS011;11748;50.844;4.396;2023-04-15T13:47:54;3.83;;;2.03;;
23159;SDS011;11748;50.844;4.396;2023-04-15T13:50:21;4.35;;;2.58;;
23159;SDS011;11748;50.844;4.396;2023-04-15T13:52:47;3.50;;;1.90;;
23159;SDS011;11748;50.844;4.396;2023-04-15T13:55:13;5.15;;;2.10;;
23159;SDS011;11748;50.844;4.396;2023-04-15T13:57:39;3.80;;;1.90;;
23159;SDS011;11748;50.844;4.396;2023-04-15T14:00:05;5.00;;;2.10;;
23159;SDS011;11748;50.844;4.396;2023-04-15T14:02:31;3.13;;;2.10;;
23159;SDS011;11748;50.844;4.396;2023-04-15T14:04:57;4.72;;;1.98;;
23159;SDS011;11748;50.844;4.396;2023-04-15T14:07:23;4.03;;;2.08;;
23159;SDS011;11748;50.844;4.396;2023-04-15T14:09:49;3.58;;;2.30;;
23159;SDS011;11748;50.844;4.396;2023-04-15T14:12:14;4.50;;;1.90;;
23159;SDS011;11748;50.844;4.396;2023-04-15T14:14:40;4.20;;;2.30;;
23159;SDS011;11748;50.844;4.396;2023-04-15T14:17:06;3.90;;;2.10;;
23159;SDS011;11748;50.844;4.396;2023-04-15T14:19:32;3.78;;;2.30;;
23159;SDS011;11748;50.844;4.396;2023-04-15T14:21:59;4.95;;;2.10;;
23159;SDS011;11748;50.844;4.396;2023-04-15T14:24:25;4.97;;;2.13;;
23159;SDS011;11748;50.844;4.396;2023-04-15T14:26:51;3.80;;;2.30;;
23159;SDS011;11748;50.844;4.396;2023-04-15T14:29:17;2.70;;;1.90;;
23159;SDS011;11748;50.844;4.396;2023-04-15T14:31:43;1.92;;;1.33;;
23159;SDS011;11748;50.844;4.396;2023-04-15T14:34:09;2.38;;;1.10;;
23159;SDS011;11748;50.844;4.396;2023-04-15T14:36:35;4.25;;;1.10;;
23159;SDS011;11748;50.844;4.396;2023-04-15T14:39:02;1.75;;;1.05;;
23159;SDS011;11748;50.844;4.396;2023-04-15T14:41:28;2.80;;;1.08;;
23159;SDS011;11748;50.844;4.396;2023-04-15T14:43:54;1.92;;;0.90;;
23159;SDS011;11748;50.844;4.396;2023-04-15T14:46:21;1.75;;;1.00;;
23159;SDS011;11748;50.844;4.396;2023-04-15T14:48:47;4.28;;;1.27;;
23159;SDS011;11748;50.844;4.396;2023-04-15T14:51:13;2.83;;;1.00;;
23159;SDS011;11748;50.844;4.396;2023-04-15T14:53:40;1.50;;;0.90;;
23159;SDS011;11748;50.844;4.396;2023-04-15T14:56:06;4.78;;;1.27;;
23159;SDS011;11748;50.844;4.396;2023-04-15T14:58:31;2.97;;;1.42;;
23159;SDS011;11748;50.844;4.396;2023-04-15T15:00:57;1.63;;;1.42;;